Pagina principale
METAR-TAF:

METAR-TAF

Aeroporti :

Palermo, Italia

Aeroporto di Palermo-Punta Raisi

latitudine: 38-11N, longitudine: 013-06E, altezza: 21 m

Osservazione

Il bollettino è stato emesso 23 minuti fa, alle 20:20 UTC
Vento 18 kt da ovest
Temperature 26°C
Umidità 70%
Pressione 1009 hPa
Visibilità 10 km o più
Nubi sparse ad un'altezza di 2500 ft

METAR: LICJ 252020Z 27018KT 9999 SCT025 26/20 Q1009

Ora: 22:43 (20:43 UTC)

Previsione

Il bollettino è stato emesso 3 ore e 43 minuti fa, alle 17:00 UTC
Previsione valida dal 25 alle 18 UTC al 26 alle 18 UTC
Vento 16 kt da ovest
Visibilità 10 km o più
nessuna nube inferiore a 1500 m e nessun cumulonembo

TAF: LICJ 251700Z 2518/2618 27016KT CAVOK

Osservazioni e previsioni meteorologiche di più di 4000 aeroporti (messaggi METAR e TAF).

Le stazioni disponibili sono rappresentate dai dischi gialli e rossi sulla carta.

Puntare il mouse per vedere il nome della stazione.

Clicca sopra per visualizzare le osservazioni e previsioni meteorologiche.

Per cambiare la mappa : fare clic sui pulsanti verdi con una croce nera per ingrandire, il pulsante verde con un trattino per diminuire, o sulla freccia verde per le mappe adiacenti.


METAR-TAF: